sensor_id;sensor_type;location;lat;lon;timestamp;P1;durP1;ratioP1;P2;durP2;ratioP2
79173;SDS011;68599;49.142;9.124;2023-04-24T00:00:59;1.10;;;0.30;;
79173;SDS011;68599;49.142;9.124;2023-04-24T00:03:27;0.70;;;0.20;;
79173;SDS011;68599;49.142;9.124;2023-04-24T00:05:55;0.80;;;0.20;;
79173;SDS011;68599;49.142;9.124;2023-04-24T00:08:22;0.10;;;0.10;;
79173;SDS011;68599;49.142;9.124;2023-04-24T00:10:50;0.80;;;0.30;;
79173;SDS011;68599;49.142;9.124;2023-04-24T00:13:18;1.60;;;0.10;;
79173;SDS011;68599;49.142;9.124;2023-04-24T00:15:44;0.90;;;0.30;;
79173;SDS011;68599;49.142;9.124;2023-04-24T00:18:11;0.70;;;0.30;;
79173;SDS011;68599;49.142;9.124;2023-04-24T00:20:37;0.80;;;0.20;;
79173;SDS011;68599;49.142;9.124;2023-04-24T00:23:04;0.20;;;0.10;;
79173;SDS011;68599;49.142;9.124;2023-04-24T00:25:31;2.40;;;0.20;;
79173;SDS011;68599;49.142;9.124;2023-04-24T00:27:57;0.40;;;0.20;;
79173;SDS011;68599;49.142;9.124;2023-04-24T00:30:24;0.50;;;0.20;;
79173;SDS011;68599;49.142;9.124;2023-04-24T00:32:50;1.70;;;0.30;;
79173;SDS011;68599;49.142;9.124;2023-04-24T00:35:17;0.80;;;0.30;;
79173;SDS011;68599;49.142;9.124;2023-04-24T00:37:46;0.30;;;0.20;;
79173;SDS011;68599;49.142;9.124;2023-04-24T00:40:12;0.30;;;0.20;;
79173;SDS011;68599;49.142;9.124;2023-04-24T00:42:39;0.50;;;0.20;;
79173;SDS011;68599;49.142;9.124;2023-04-24T00:45:07;0.50;;;0.20;;
79173;SDS011;68599;49.142;9.124;2023-04-24T00:47:34;2.50;;;0.40;;
79173;SDS011;68599;49.142;9.124;2023-04-24T00:50:04;0.40;;;0.10;;
79173;SDS011;68599;49.142;9.124;2023-04-24T00:52:32;0.70;;;0.30;;
79173;SDS011;68599;49.142;9.124;2023-04-24T00:54:59;0.70;;;0.50;;
79173;SDS011;68599;49.142;9.124;2023-04-24T00:57:26;0.50;;;0.20;;
79173;SDS011;68599;49.142;9.124;2023-04-24T00:59:53;0.80;;;0.20;;
79173;SDS011;68599;49.142;9.124;2023-04-24T01:02:20;0.70;;;0.20;;
79173;SDS011;68599;49.142;9.124;2023-04-24T01:04:49;0.50;;;0.30;;
79173;SDS011;68599;49.142;9.124;2023-04-24T01:07:20;2.70;;;0.50;;
79173;SDS011;68599;49.142;9.124;2023-04-24T01:09:47;1.30;;;0.30;;
79173;SDS011;68599;49.142;9.124;2023-04-24T01:12:17;1.60;;;0.40;;
79173;SDS011;68599;49.142;9.124;2023-04-24T01:14:45;0.60;;;0.20;;
79173;SDS011;68599;49.142;9.124;2023-04-24T01:17:11;1.50;;;0.30;;
79173;SDS011;68599;49.142;9.124;2023-04-24T01:19:38;0.20;;;0.10;;
79173;SDS011;68599;49.142;9.124;2023-04-24T01:22:12;1.20;;;0.50;;
79173;SDS011;68599;49.142;9.124;2023-04-24T01:24:40;1.20;;;0.40;;
79173;SDS011;68599;49.142;9.124;2023-04-24T01:27:08;1.10;;;0.30;;
79173;SDS011;68599;49.142;9.124;2023-04-24T01:29:36;1.30;;;0.20;;
79173;SDS011;68599;49.142;9.124;2023-04-24T01:32:03;0.70;;;0.40;;
79173;SDS011;68599;49.142;9.124;2023-04-24T01:34:31;1.50;;;0.40;;
79173;SDS011;68599;49.142;9.124;2023-04-24T01:36:57;1.20;;;0.30;;
79173;SDS011;68599;49.142;9.124;2023-04-24T01:39:24;0.70;;;0.20;;
79173;SDS011;68599;49.142;9.124;2023-04-24T01:41:52;1.30;;;0.30;;
79173;SDS011;68599;49.142;9.124;2023-04-24T01:44:19;3.10;;;0.30;;
79173;SDS011;68599;49.142;9.124;2023-04-24T01:46:47;0.40;;;0.00;;
79173;SDS011;68599;49.142;9.124;2023-04-24T01:49:14;0.50;;;0.20;;
79173;SDS011;68599;49.142;9.124;2023-04-24T01:51:40;0.80;;;0.30;;
79173;SDS011;68599;49.142;9.124;2023-04-24T01:54:07;0.80;;;0.30;;
79173;SDS011;68599;49.142;9.124;2023-04-24T01:56:33;0.90;;;0.40;;
79173;SDS011;68599;49.142;9.124;2023-04-24T01:59:02;0.50;;;0.30;;
79173;SDS011;68599;49.142;9.124;2023-04-24T02:01:33;2.00;;;0.50;;
79173;SDS011;68599;49.142;9.124;2023-04-24T02:04:02;6.30;;;3.00;;
79173;SDS011;68599;49.142;9.124;2023-04-24T02:06:30;4.90;;;1.90;;
79173;SDS011;68599;49.142;9.124;2023-04-24T02:08:58;2.00;;;0.80;;
79173;SDS011;68599;49.142;9.124;2023-04-24T02:11:25;0.80;;;0.50;;
79173;SDS011;68599;49.142;9.124;2023-04-24T02:13:52;1.20;;;0.50;;
79173;SDS011;68599;49.142;9.124;2023-04-24T02:16:19;1.00;;;0.60;;
79173;SDS011;68599;49.142;9.124;2023-04-24T02:18:47;5.00;;;2.60;;
79173;SDS011;68599;49.142;9.124;2023-04-24T02:21:13;1.90;;;1.10;;
79173;SDS011;68599;49.142;9.124;2023-04-24T02:23:40;7.80;;;4.20;;
79173;SDS011;68599;49.142;9.124;2023-04-24T02:26:06;1.80;;;0.40;;
79173;SDS011;68599;49.142;9.124;2023-04-24T02:28:33;1.10;;;0.60;;
79173;SDS011;68599;49.142;9.124;2023-04-24T02:31:00;1.30;;;0.60;;
79173;SDS011;68599;49.142;9.124;2023-04-24T02:33:26;0.80;;;0.10;;
79173;SDS011;68599;49.142;9.124;2023-04-24T02:35:53;3.00;;;0.50;;
79173;SDS011;68599;49.142;9.124;2023-04-24T02:38:19;0.00;;;0.00;;
79173;SDS011;68599;49.142;9.124;2023-04-24T02:40:46;3.00;;;0.30;;
79173;SDS011;68599;49.142;9.124;2023-04-24T02:43:13;0.70;;;0.20;;
79173;SDS011;68599;49.142;9.124;2023-04-24T02:45:39;1.80;;;0.30;;
79173;SDS011;68599;49.142;9.124;2023-04-24T02:48:06;1.10;;;0.30;;
79173;SDS011;68599;49.142;9.124;2023-04-24T02:50:32;2.40;;;0.40;;
79173;SDS011;68599;49.142;9.124;2023-04-24T02:52:59;0.10;;;0.00;;
79173;SDS011;68599;49.142;9.124;2023-04-24T02:55:26;1.80;;;0.30;;
79173;SDS011;68599;49.142;9.124;2023-04-24T02:57:53;0.50;;;0.30;;
79173;SDS011;68599;49.142;9.124;2023-04-24T03:00:19;1.80;;;0.30;;
79173;SDS011;68599;49.142;9.124;2023-04-24T03:02:46;0.70;;;0.30;;
79173;SDS011;68599;49.142;9.124;2023-04-24T03:05:13;1.20;;;0.30;;
79173;SDS011;68599;49.142;9.124;2023-04-24T03:07:40;0.40;;;0.10;;
79173;SDS011;68599;49.142;9.124;2023-04-24T03:10:06;2.10;;;0.30;;
79173;SDS011;68599;49.142;9.124;2023-04-24T03:12:33;0.50;;;0.40;;
79173;SDS011;68599;49.142;9.124;2023-04-24T03:15:00;0.60;;;0.20;;
79173;SDS011;68599;49.142;9.124;2023-04-24T03:17:27;1.00;;;0.40;;
79173;SDS011;68599;49.142;9.124;2023-04-24T03:19:53;1.40;;;0.40;;
79173;SDS011;68599;49.142;9.124;2023-04-24T03:22:20;0.60;;;0.20;;
79173;SDS011;68599;49.142;9.124;2023-04-24T03:24:46;1.10;;;0.40;;
79173;SDS011;68599;49.142;9.124;2023-04-24T03:27:13;0.30;;;0.20;;
79173;SDS011;68599;49.142;9.124;2023-04-24T03:29:39;1.10;;;0.10;;
79173;SDS011;68599;49.142;9.124;2023-04-24T03:32:06;1.40;;;0.50;;
79173;SDS011;68599;49.142;9.124;2023-04-24T03:34:32;2.00;;;0.40;;
79173;SDS011;68599;49.142;9.124;2023-04-24T03:36:59;0.80;;;0.30;;
79173;SDS011;68599;49.142;9.124;2023-04-24T03:39:25;0.50;;;0.10;;
79173;SDS011;68599;49.142;9.124;2023-04-24T03:41:52;0.60;;;0.20;;
79173;SDS011;68599;49.142;9.124;2023-04-24T03:44:18;0.30;;;0.10;;
79173;SDS011;68599;49.142;9.124;2023-04-24T03:46:45;0.90;;;0.10;;
79173;SDS011;68599;49.142;9.124;2023-04-24T03:49:11;0.70;;;0.20;;
79173;SDS011;68599;49.142;9.124;2023-04-24T03:51:38;1.40;;;0.50;;
79173;SDS011;68599;49.142;9.124;2023-04-24T03:54:04;0.90;;;0.30;;
79173;SDS011;68599;49.142;9.124;2023-04-24T03:56:31;0.70;;;0.30;;
79173;SDS011;68599;49.142;9.124;2023-04-24T03:58:57;3.10;;;0.40;;
79173;SDS011;68599;49.142;9.124;2023-04-24T04:01:24;1.60;;;0.80;;
79173;SDS011;68599;49.142;9.124;2023-04-24T04:03:50;1.20;;;0.20;;
79173;SDS011;68599;49.142;9.124;2023-04-24T04:06:17;0.80;;;0.40;;
79173;SDS011;68599;49.142;9.124;2023-04-24T04:08:45;1.40;;;0.30;;
79173;SDS011;68599;49.142;9.124;2023-04-24T04:11:12;2.00;;;0.20;;
79173;SDS011;68599;49.142;9.124;2023-04-24T04:13:38;0.70;;;0.20;;
79173;SDS011;68599;49.142;9.124;2023-04-24T04:16:05;1.50;;;0.40;;
79173;SDS011;68599;49.142;9.124;2023-04-24T04:18:32;0.70;;;0.30;;
79173;SDS011;68599;49.142;9.124;2023-04-24T04:23:27;0.60;;;0.30;;
79173;SDS011;68599;49.142;9.124;2023-04-24T04:25:54;0.60;;;0.30;;
79173;SDS011;68599;49.142;9.124;2023-04-24T04:28:21;2.40;;;0.80;;
79173;SDS011;68599;49.142;9.124;2023-04-24T04:30:47;1.00;;;0.40;;
79173;SDS011;68599;49.142;9.124;2023-04-24T04:33:14;1.50;;;0.50;;
79173;SDS011;68599;49.142;9.124;2023-04-24T04:35:41;1.60;;;0.40;;
79173;SDS011;68599;49.142;9.124;2023-04-24T04:38:07;2.00;;;0.70;;
79173;SDS011;68599;49.142;9.124;2023-04-24T04:40:34;0.90;;;0.40;;
79173;SDS011;68599;49.142;9.124;2023-04-24T04:43:01;1.80;;;0.40;;
79173;SDS011;68599;49.142;9.124;2023-04-24T04:45:27;2.60;;;0.70;;
79173;SDS011;68599;49.142;9.124;2023-04-24T04:47:54;1.50;;;0.70;;
79173;SDS011;68599;49.142;9.124;2023-04-24T04:50:21;1.40;;;0.70;;
79173;SDS011;68599;49.142;9.124;2023-04-24T04:52:49;1.20;;;0.60;;
79173;SDS011;68599;49.142;9.124;2023-04-24T04:55:15;2.00;;;0.80;;
79173;SDS011;68599;49.142;9.124;2023-04-24T04:57:42;1.20;;;0.40;;
79173;SDS011;68599;49.142;9.124;2023-04-24T05:00:08;1.00;;;0.60;;
79173;SDS011;68599;49.142;9.124;2023-04-24T05:02:36;1.50;;;0.70;;
79173;SDS011;68599;49.142;9.124;2023-04-24T05:05:03;2.40;;;1.00;;
79173;SDS011;68599;49.142;9.124;2023-04-24T05:07:31;1.70;;;0.80;;
79173;SDS011;68599;49.142;9.124;2023-04-24T05:09:57;1.20;;;0.60;;
79173;SDS011;68599;49.142;9.124;2023-04-24T05:12:24;3.90;;;0.90;;
79173;SDS011;68599;49.142;9.124;2023-04-24T05:14:51;1.90;;;1.00;;
79173;SDS011;68599;49.142;9.124;2023-04-24T05:17:17;1.80;;;0.80;;
79173;SDS011;68599;49.142;9.124;2023-04-24T05:19:44;2.80;;;0.60;;
79173;SDS011;68599;49.142;9.124;2023-04-24T05:22:11;1.20;;;0.70;;
79173;SDS011;68599;49.142;9.124;2023-04-24T05:24:38;3.10;;;1.00;;
79173;SDS011;68599;49.142;9.124;2023-04-24T05:27:05;1.40;;;0.70;;
79173;SDS011;68599;49.142;9.124;2023-04-24T05:29:31;1.10;;;0.60;;
79173;SDS011;68599;49.142;9.124;2023-04-24T05:31:59;1.70;;;0.60;;
79173;SDS011;68599;49.142;9.124;2023-04-24T05:36:53;3.50;;;0.70;;
79173;SDS011;68599;49.142;9.124;2023-04-24T05:39:20;3.10;;;0.60;;
79173;SDS011;68599;49.142;9.124;2023-04-24T05:41:46;1.10;;;0.80;;
79173;SDS011;68599;49.142;9.124;2023-04-24T05:44:13;1.70;;;0.60;;
79173;SDS011;68599;49.142;9.124;2023-04-24T05:46:40;1.00;;;0.60;;
79173;SDS011;68599;49.142;9.124;2023-04-24T05:49:06;1.80;;;0.70;;
79173;SDS011;68599;49.142;9.124;2023-04-24T05:51:33;1.20;;;0.50;;
79173;SDS011;68599;49.142;9.124;2023-04-24T05:53:59;2.10;;;0.70;;
79173;SDS011;68599;49.142;9.124;2023-04-24T05:56:26;1.00;;;0.40;;
79173;SDS011;68599;49.142;9.124;2023-04-24T05:58:53;2.50;;;0.70;;
79173;SDS011;68599;49.142;9.124;2023-04-24T06:01:19;1.70;;;0.60;;
79173;SDS011;68599;49.142;9.124;2023-04-24T06:03:46;1.20;;;0.70;;
79173;SDS011;68599;49.142;9.124;2023-04-24T06:06:12;0.60;;;0.50;;
79173;SDS011;68599;49.142;9.124;2023-04-24T06:08:39;1.10;;;0.60;;
79173;SDS011;68599;49.142;9.124;2023-04-24T06:11:08;1.60;;;1.00;;
79173;SDS011;68599;49.142;9.124;2023-04-24T06:13:35;2.70;;;0.70;;
79173;SDS011;68599;49.142;9.124;2023-04-24T06:16:01;1.50;;;0.70;;
79173;SDS011;68599;49.142;9.124;2023-04-24T06:18:28;1.60;;;0.90;;
79173;SDS011;68599;49.142;9.124;2023-04-24T06:20:54;1.40;;;0.90;;
79173;SDS011;68599;49.142;9.124;2023-04-24T06:23:21;2.60;;;1.10;;
79173;SDS011;68599;49.142;9.124;2023-04-24T06:25:48;1.00;;;0.70;;
79173;SDS011;68599;49.142;9.124;2023-04-24T06:28:14;1.80;;;1.00;;
79173;SDS011;68599;49.142;9.124;2023-04-24T06:30:41;2.20;;;1.00;;
79173;SDS011;68599;49.142;9.124;2023-04-24T06:33:07;2.90;;;0.90;;
79173;SDS011;68599;49.142;9.124;2023-04-24T06:35:47;2.10;;;0.90;;
79173;SDS011;68599;49.142;9.124;2023-04-24T06:38:13;2.40;;;0.90;;
79173;SDS011;68599;49.142;9.124;2023-04-24T06:40:40;1.40;;;0.70;;
79173;SDS011;68599;49.142;9.124;2023-04-24T06:43:06;1.10;;;0.60;;
79173;SDS011;68599;49.142;9.124;2023-04-24T06:45:33;2.50;;;0.90;;
79173;SDS011;68599;49.142;9.124;2023-04-24T06:48:00;2.10;;;0.90;;
79173;SDS011;68599;49.142;9.124;2023-04-24T06:50:26;1.90;;;0.80;;
79173;SDS011;68599;49.142;9.124;2023-04-24T06:52:53;3.20;;;1.10;;
79173;SDS011;68599;49.142;9.124;2023-04-24T06:55:19;1.00;;;0.70;;
79173;SDS011;68599;49.142;9.124;2023-04-24T06:57:46;3.20;;;1.00;;
79173;SDS011;68599;49.142;9.124;2023-04-24T07:00:12;8.10;;;1.30;;
79173;SDS011;68599;49.142;9.124;2023-04-24T07:02:39;1.90;;;1.30;;
79173;SDS011;68599;49.142;9.124;2023-04-24T07:05:06;2.40;;;1.00;;
79173;SDS011;68599;49.142;9.124;2023-04-24T07:07:34;2.50;;;0.90;;
79173;SDS011;68599;49.142;9.124;2023-04-24T07:10:04;4.60;;;1.00;;
79173;SDS011;68599;49.142;9.124;2023-04-24T07:12:31;3.30;;;0.90;;
79173;SDS011;68599;49.142;9.124;2023-04-24T07:14:59;1.80;;;1.00;;
79173;SDS011;68599;49.142;9.124;2023-04-24T07:17:27;2.80;;;0.90;;
79173;SDS011;68599;49.142;9.124;2023-04-24T07:19:53;2.50;;;1.10;;
79173;SDS011;68599;49.142;9.124;2023-04-24T07:22:20;2.60;;;0.80;;
79173;SDS011;68599;49.142;9.124;2023-04-24T07:24:47;3.70;;;1.00;;
79173;SDS011;68599;49.142;9.124;2023-04-24T07:27:13;1.80;;;0.80;;
79173;SDS011;68599;49.142;9.124;2023-04-24T07:29:41;2.00;;;0.80;;
79173;SDS011;68599;49.142;9.124;2023-04-24T07:34:35;2.10;;;1.00;;
79173;SDS011;68599;49.142;9.124;2023-04-24T07:37:02;1.10;;;0.80;;
79173;SDS011;68599;49.142;9.124;2023-04-24T07:39:28;2.30;;;0.90;;
79173;SDS011;68599;49.142;9.124;2023-04-24T07:41:55;2.90;;;1.00;;
79173;SDS011;68599;49.142;9.124;2023-04-24T07:44:22;1.80;;;0.80;;
79173;SDS011;68599;49.142;9.124;2023-04-24T07:46:48;2.10;;;0.90;;
79173;SDS011;68599;49.142;9.124;2023-04-24T07:49:15;3.10;;;0.80;;
79173;SDS011;68599;49.142;9.124;2023-04-24T07:51:44;2.00;;;0.90;;
79173;SDS011;68599;49.142;9.124;2023-04-24T07:54:11;1.90;;;0.90;;
79173;SDS011;68599;49.142;9.124;2023-04-24T07:56:38;2.20;;;0.70;;
79173;SDS011;68599;49.142;9.124;2023-04-24T07:59:05;2.10;;;0.90;;
79173;SDS011;68599;49.142;9.124;2023-04-24T08:01:32;2.10;;;0.90;;
79173;SDS011;68599;49.142;9.124;2023-04-24T08:03:58;1.70;;;0.60;;
79173;SDS011;68599;49.142;9.124;2023-04-24T08:06:25;2.30;;;0.90;;
79173;SDS011;68599;49.142;9.124;2023-04-24T08:08:57;1.40;;;0.70;;
79173;SDS011;68599;49.142;9.124;2023-04-24T08:11:24;0.90;;;0.40;;
79173;SDS011;68599;49.142;9.124;2023-04-24T08:13:51;1.40;;;0.80;;
79173;SDS011;68599;49.142;9.124;2023-04-24T08:16:18;2.00;;;0.60;;
79173;SDS011;68599;49.142;9.124;2023-04-24T08:18:45;1.20;;;0.70;;
79173;SDS011;68599;49.142;9.124;2023-04-24T08:21:11;1.00;;;0.60;;
79173;SDS011;68599;49.142;9.124;2023-04-24T08:23:43;1.50;;;0.70;;
79173;SDS011;68599;49.142;9.124;2023-04-24T08:26:10;1.60;;;0.60;;
79173;SDS011;68599;49.142;9.124;2023-04-24T08:28:37;1.70;;;0.60;;
79173;SDS011;68599;49.142;9.124;2023-04-24T08:31:04;0.70;;;0.40;;
79173;SDS011;68599;49.142;9.124;2023-04-24T08:33:31;1.50;;;0.50;;
79173;SDS011;68599;49.142;9.124;2023-04-24T08:36:04;2.30;;;0.70;;
79173;SDS011;68599;49.142;9.124;2023-04-24T08:38:31;1.60;;;0.80;;
79173;SDS011;68599;49.142;9.124;2023-04-24T08:40:59;1.20;;;0.70;;
79173;SDS011;68599;49.142;9.124;2023-04-24T08:43:26;1.70;;;0.60;;
79173;SDS011;68599;49.142;9.124;2023-04-24T08:45:55;1.70;;;0.60;;
79173;SDS011;68599;49.142;9.124;2023-04-24T08:48:23;1.00;;;0.60;;
79173;SDS011;68599;49.142;9.124;2023-04-24T08:50:57;1.60;;;0.70;;
79173;SDS011;68599;49.142;9.124;2023-04-24T08:53:25;1.90;;;0.80;;
79173;SDS011;68599;49.142;9.124;2023-04-24T08:55:54;1.50;;;0.60;;
79173;SDS011;68599;49.142;9.124;2023-04-24T08:58:22;0.90;;;0.60;;
79173;SDS011;68599;49.142;9.124;2023-04-24T09:00:53;1.40;;;0.60;;
79173;SDS011;68599;49.142;9.124;2023-04-24T09:03:21;3.20;;;0.80;;
79173;SDS011;68599;49.142;9.124;2023-04-24T09:05:49;0.90;;;0.50;;
79173;SDS011;68599;49.142;9.124;2023-04-24T09:08:17;1.00;;;0.40;;
79173;SDS011;68599;49.142;9.124;2023-04-24T09:10:45;0.50;;;0.30;;
79173;SDS011;68599;49.142;9.124;2023-04-24T09:13:15;1.40;;;0.60;;
79173;SDS011;68599;49.142;9.124;2023-04-24T09:15:42;0.50;;;0.40;;
79173;SDS011;68599;49.142;9.124;2023-04-24T09:18:09;2.80;;;0.50;;
79173;SDS011;68599;49.142;9.124;2023-04-24T09:20:56;2.30;;;0.60;;
79173;SDS011;68599;49.142;9.124;2023-04-24T09:23:27;1.40;;;0.60;;
79173;SDS011;68599;49.142;9.124;2023-04-24T09:25:55;1.30;;;0.70;;
79173;SDS011;68599;49.142;9.124;2023-04-24T09:28:32;3.60;;;0.80;;
79173;SDS011;68599;49.142;9.124;2023-04-24T09:33:31;0.90;;;0.50;;
79173;SDS011;68599;49.142;9.124;2023-04-24T09:35:58;0.70;;;0.50;;
79173;SDS011;68599;49.142;9.124;2023-04-24T09:38:35;0.80;;;0.40;;
79173;SDS011;68599;49.142;9.124;2023-04-24T09:41:04;0.50;;;0.20;;
79173;SDS011;68599;49.142;9.124;2023-04-24T09:43:32;1.50;;;0.40;;
79173;SDS011;68599;49.142;9.124;2023-04-24T09:48:33;0.70;;;0.40;;
79173;SDS011;68599;49.142;9.124;2023-04-24T09:51:02;0.80;;;0.40;;
79173;SDS011;68599;49.142;9.124;2023-04-24T09:53:30;0.80;;;0.50;;
79173;SDS011;68599;49.142;9.124;2023-04-24T09:56:07;1.40;;;0.60;;
79173;SDS011;68599;49.142;9.124;2023-04-24T09:58:38;1.40;;;0.60;;
79173;SDS011;68599;49.142;9.124;2023-04-24T10:01:05;1.00;;;0.60;;
79173;SDS011;68599;49.142;9.124;2023-04-24T10:03:32;2.20;;;0.90;;
79173;SDS011;68599;49.142;9.124;2023-04-24T10:06:00;1.70;;;0.80;;
79173;SDS011;68599;49.142;9.124;2023-04-24T10:08:33;4.50;;;1.00;;
79173;SDS011;68599;49.142;9.124;2023-04-24T10:11:00;2.50;;;1.10;;
79173;SDS011;68599;49.142;9.124;2023-04-24T10:13:28;2.00;;;1.20;;
79173;SDS011;68599;49.142;9.124;2023-04-24T10:15:55;2.10;;;1.10;;
79173;SDS011;68599;49.142;9.124;2023-04-24T10:18:22;1.80;;;1.00;;
79173;SDS011;68599;49.142;9.124;2023-04-24T10:20:50;2.30;;;1.10;;
79173;SDS011;68599;49.142;9.124;2023-04-24T10:23:18;2.00;;;1.00;;
79173;SDS011;68599;49.142;9.124;2023-04-24T10:25:45;2.60;;;1.00;;
79173;SDS011;68599;49.142;9.124;2023-04-24T10:28:12;2.40;;;1.10;;
79173;SDS011;68599;49.142;9.124;2023-04-24T10:30:39;2.60;;;0.90;;
79173;SDS011;68599;49.142;9.124;2023-04-24T10:33:09;1.40;;;0.90;;
79173;SDS011;68599;49.142;9.124;2023-04-24T10:35:44;4.00;;;1.40;;
79173;SDS011;68599;49.142;9.124;2023-04-24T10:38:16;2.10;;;1.20;;
79173;SDS011;68599;49.142;9.124;2023-04-24T10:40:45;4.30;;;1.30;;
79173;SDS011;68599;49.142;9.124;2023-04-24T10:43:13;2.20;;;1.10;;
79173;SDS011;68599;49.142;9.124;2023-04-24T10:45:59;1.80;;;1.10;;
79173;SDS011;68599;49.142;9.124;2023-04-24T10:48:31;1.30;;;0.90;;
79173;SDS011;68599;49.142;9.124;2023-04-24T10:50:58;7.50;;;1.70;;
79173;SDS011;68599;49.142;9.124;2023-04-24T10:53:28;1.70;;;1.20;;
79173;SDS011;68599;49.142;9.124;2023-04-24T10:58:37;2.90;;;1.50;;
79173;SDS011;68599;49.142;9.124;2023-04-24T11:01:04;1.90;;;1.10;;
79173;SDS011;68599;49.142;9.124;2023-04-24T11:03:32;2.70;;;1.20;;
79173;SDS011;68599;49.142;9.124;2023-04-24T11:08:30;2.40;;;1.10;;
79173;SDS011;68599;49.142;9.124;2023-04-24T11:16:20;1.60;;;1.00;;
79173;SDS011;68599;49.142;9.124;2023-04-24T11:18:57;5.40;;;1.20;;
79173;SDS011;68599;49.142;9.124;2023-04-24T11:21:31;2.90;;;1.10;;
79173;SDS011;68599;49.142;9.124;2023-04-24T11:24:01;2.10;;;1.10;;
79173;SDS011;68599;49.142;9.124;2023-04-24T11:26:58;1.70;;;1.20;;
79173;SDS011;68599;49.142;9.124;2023-04-24T11:29:47;2.20;;;1.20;;
79173;SDS011;68599;49.142;9.124;2023-04-24T11:34:41;2.70;;;1.20;;
79173;SDS011;68599;49.142;9.124;2023-04-24T11:37:11;3.80;;;1.30;;
79173;SDS011;68599;49.142;9.124;2023-04-24T11:39:38;2.50;;;1.30;;
79173;SDS011;68599;49.142;9.124;2023-04-24T11:42:05;6.50;;;1.30;;
79173;SDS011;68599;49.142;9.124;2023-04-24T11:44:34;2.40;;;1.40;;
79173;SDS011;68599;49.142;9.124;2023-04-24T11:47:04;3.10;;;1.30;;
79173;SDS011;68599;49.142;9.124;2023-04-24T11:49:33;2.00;;;1.20;;
79173;SDS011;68599;49.142;9.124;2023-04-24T11:51:59;2.70;;;1.60;;
79173;SDS011;68599;49.142;9.124;2023-04-24T11:54:27;1.80;;;1.20;;
79173;SDS011;68599;49.142;9.124;2023-04-24T11:56:55;3.70;;;1.50;;
79173;SDS011;68599;49.142;9.124;2023-04-24T11:59:22;3.40;;;1.60;;
79173;SDS011;68599;49.142;9.124;2023-04-24T12:01:48;2.00;;;1.20;;
79173;SDS011;68599;49.142;9.124;2023-04-24T12:07:04;2.60;;;1.40;;
79173;SDS011;68599;49.142;9.124;2023-04-24T12:09:44;2.20;;;1.10;;
79173;SDS011;68599;49.142;9.124;2023-04-24T12:12:13;2.00;;;1.10;;
79173;SDS011;68599;49.142;9.124;2023-04-24T12:14:47;2.00;;;1.30;;
79173;SDS011;68599;49.142;9.124;2023-04-24T12:17:16;2.90;;;1.40;;
79173;SDS011;68599;49.142;9.124;2023-04-24T12:19:46;2.30;;;1.40;;
79173;SDS011;68599;49.142;9.124;2023-04-24T12:22:14;3.30;;;2.00;;
79173;SDS011;68599;49.142;9.124;2023-04-24T12:25:00;3.20;;;1.60;;
79173;SDS011;68599;49.142;9.124;2023-04-24T12:27:32;2.40;;;1.50;;
79173;SDS011;68599;49.142;9.124;2023-04-24T12:30:03;2.00;;;1.60;;
79173;SDS011;68599;49.142;9.124;2023-04-24T12:32:31;2.60;;;1.70;;
79173;SDS011;68599;49.142;9.124;2023-04-24T12:34:58;2.00;;;1.50;;
79173;SDS011;68599;49.142;9.124;2023-04-24T12:37:25;2.30;;;1.60;;
79173;SDS011;68599;49.142;9.124;2023-04-24T12:40:00;3.00;;;1.80;;
79173;SDS011;68599;49.142;9.124;2023-04-24T12:42:30;3.10;;;1.80;;
79173;SDS011;68599;49.142;9.124;2023-04-24T12:44:57;2.10;;;1.60;;
79173;SDS011;68599;49.142;9.124;2023-04-24T12:47:27;4.20;;;1.70;;
79173;SDS011;68599;49.142;9.124;2023-04-24T12:49:54;2.60;;;1.80;;
79173;SDS011;68599;49.142;9.124;2023-04-24T12:52:32;2.90;;;1.60;;
79173;SDS011;68599;49.142;9.124;2023-04-24T12:55:07;4.30;;;1.80;;
79173;SDS011;68599;49.142;9.124;2023-04-24T12:57:35;2.50;;;1.60;;
79173;SDS011;68599;49.142;9.124;2023-04-24T13:00:03;4.20;;;1.70;;
79173;SDS011;68599;49.142;9.124;2023-04-24T13:02:37;3.50;;;1.70;;
79173;SDS011;68599;49.142;9.124;2023-04-24T13:05:05;2.30;;;1.60;;
79173;SDS011;68599;49.142;9.124;2023-04-24T13:07:32;4.00;;;1.90;;
79173;SDS011;68599;49.142;9.124;2023-04-24T13:09:59;3.30;;;1.70;;
79173;SDS011;68599;49.142;9.124;2023-04-24T13:12:25;3.30;;;1.70;;
79173;SDS011;68599;49.142;9.124;2023-04-24T13:17:23;4.00;;;1.80;;
79173;SDS011;68599;49.142;9.124;2023-04-24T13:19:51;2.70;;;2.00;;
79173;SDS011;68599;49.142;9.124;2023-04-24T13:22:18;2.90;;;1.40;;
79173;SDS011;68599;49.142;9.124;2023-04-24T13:24:47;1.70;;;1.20;;
79173;SDS011;68599;49.142;9.124;2023-04-24T13:27:17;3.50;;;1.90;;
79173;SDS011;68599;49.142;9.124;2023-04-24T13:29:45;4.30;;;1.90;;
79173;SDS011;68599;49.142;9.124;2023-04-24T13:32:12;2.60;;;1.50;;
79173;SDS011;68599;49.142;9.124;2023-04-24T13:34:39;2.40;;;1.40;;
79173;SDS011;68599;49.142;9.124;2023-04-24T13:37:09;4.30;;;1.80;;
79173;SDS011;68599;49.142;9.124;2023-04-24T13:39:36;2.30;;;1.60;;
79173;SDS011;68599;49.142;9.124;2023-04-24T13:42:04;2.80;;;1.80;;
79173;SDS011;68599;49.142;9.124;2023-04-24T13:44:30;3.20;;;1.80;;
79173;SDS011;68599;49.142;9.124;2023-04-24T13:46:57;2.30;;;1.50;;
79173;SDS011;68599;49.142;9.124;2023-04-24T13:49:24;3.20;;;1.50;;
79173;SDS011;68599;49.142;9.124;2023-04-24T13:54:18;3.10;;;1.60;;
79173;SDS011;68599;49.142;9.124;2023-04-24T13:56:45;3.60;;;1.40;;
79173;SDS011;68599;49.142;9.124;2023-04-24T13:59:12;3.10;;;1.50;;
79173;SDS011;68599;49.142;9.124;2023-04-24T14:01:39;3.90;;;1.50;;
79173;SDS011;68599;49.142;9.124;2023-04-24T14:06:33;2.90;;;1.70;;
79173;SDS011;68599;49.142;9.124;2023-04-24T14:08:59;2.50;;;1.70;;
79173;SDS011;68599;49.142;9.124;2023-04-24T14:11:26;3.10;;;1.30;;
79173;SDS011;68599;49.142;9.124;2023-04-24T14:16:22;2.30;;;1.10;;
79173;SDS011;68599;49.142;9.124;2023-04-24T14:18:49;3.40;;;1.40;;
79173;SDS011;68599;49.142;9.124;2023-04-24T14:23:43;2.10;;;1.10;;
79173;SDS011;68599;49.142;9.124;2023-04-24T14:26:10;2.20;;;1.10;;
79173;SDS011;68599;49.142;9.124;2023-04-24T14:28:37;2.50;;;1.00;;
79173;SDS011;68599;49.142;9.124;2023-04-24T14:31:03;3.10;;;1.60;;
79173;SDS011;68599;49.142;9.124;2023-04-24T14:33:30;2.40;;;1.20;;
79173;SDS011;68599;49.142;9.124;2023-04-24T14:35:56;2.80;;;1.70;;
79173;SDS011;68599;49.142;9.124;2023-04-24T14:38:23;2.70;;;1.60;;
79173;SDS011;68599;49.142;9.124;2023-04-24T14:40:49;2.50;;;1.20;;
79173;SDS011;68599;49.142;9.124;2023-04-24T14:43:19;1.70;;;1.10;;
79173;SDS011;68599;49.142;9.124;2023-04-24T14:45:45;1.80;;;1.20;;
79173;SDS011;68599;49.142;9.124;2023-04-24T14:48:12;3.30;;;1.60;;
79173;SDS011;68599;49.142;9.124;2023-04-24T14:50:39;3.00;;;1.60;;
79173;SDS011;68599;49.142;9.124;2023-04-24T14:53:05;3.50;;;1.70;;
79173;SDS011;68599;49.142;9.124;2023-04-24T14:55:32;2.50;;;2.00;;
79173;SDS011;68599;49.142;9.124;2023-04-24T14:58:00;3.00;;;1.50;;
79173;SDS011;68599;49.142;9.124;2023-04-24T15:00:27;2.80;;;1.50;;
79173;SDS011;68599;49.142;9.124;2023-04-24T15:02:54;5.50;;;1.90;;
79173;SDS011;68599;49.142;9.124;2023-04-24T15:05:21;2.80;;;1.60;;
79173;SDS011;68599;49.142;9.124;2023-04-24T15:07:49;3.80;;;1.60;;
79173;SDS011;68599;49.142;9.124;2023-04-24T15:10:16;2.70;;;1.60;;
79173;SDS011;68599;49.142;9.124;2023-04-24T15:12:43;2.80;;;1.50;;
79173;SDS011;68599;49.142;9.124;2023-04-24T15:15:13;3.80;;;1.70;;
79173;SDS011;68599;49.142;9.124;2023-04-24T15:17:40;2.00;;;1.30;;
79173;SDS011;68599;49.142;9.124;2023-04-24T15:20:07;2.90;;;1.50;;
79173;SDS011;68599;49.142;9.124;2023-04-24T15:22:34;2.30;;;1.60;;
79173;SDS011;68599;49.142;9.124;2023-04-24T15:27:27;2.40;;;1.50;;
79173;SDS011;68599;49.142;9.124;2023-04-24T15:29:54;4.20;;;1.30;;
79173;SDS011;68599;49.142;9.124;2023-04-24T15:32:20;4.00;;;1.00;;
79173;SDS011;68599;49.142;9.124;2023-04-24T15:34:48;2.60;;;1.50;;